Time;durP1;ratioP1;P1;durP2;ratioP2;P2;SDS_P1;SDS_P2;PMS_P1;PMS_P2;Temp;Humidity;BMP_temperature;BMP_pressure;BME280_temperature;BME280_humidity;BME280_pressure;Samples;Min_cycle;Max_cycle;Signal;HPM_P1;HPM_P2
2021/03/27 00:01:39;;;;;;;;;;;;;;;14.46;43.11;100519.91;4962578;28;11118;-77
2021/03/27 00:04:15;;;;;;;;;;;;;;;14.44;43.31;100519.03;4988293;28;11134;-76
2021/03/27 00:06:45;;;;;;;;;;;;;;;14.42;43.58;100531.19;4987553;28;7185;-77
2021/03/27 00:09:22;;;;;;;;;;;;;;;14.40;44.00;100564.22;4971042;28;8462;-77
2021/03/27 00:12:22;;;;;;;;;;;;;;;14.36;44.19;100583.38;4986297;28;6911;-77
2021/03/27 00:14:50;;;;;;;;;;;;;;;14.32;44.93;100608.63;4988580;28;11421;-77
2021/03/27 00:17:20;;;;;;;;;;;;;;;14.26;45.53;100611.22;4989552;28;8658;-77
2021/03/27 00:19:51;;;;;;;;;;;;;;;14.24;45.23;100618.16;4973829;28;7894;-77
2021/03/27 00:22:38;;;;;;;;;;;;;;;14.22;44.96;100610.31;4969785;28;7064;-77
2021/03/27 00:25:25;;;;;;;;;;;;;;;14.18;45.21;100621.59;4984675;28;11154;-75
2021/03/27 00:28:18;;;;;;;;;;;;;;;14.14;45.61;100626.78;5003818;28;7233;-77
2021/03/27 00:31:13;;;;;;;;;;;;;;;14.09;45.35;100624.16;4984913;28;12339;-77
2021/03/27 00:33:43;;;;;;;;;;;;;;;14.04;46.30;100632.81;4994458;28;12738;-76
2021/03/27 00:36:14;;;;;;;;;;;;;;;14.00;46.19;100644.94;4985495;28;7223;-77
2021/03/27 00:38:43;;;;;;;;;;;;;;;13.97;46.00;100644.94;4948388;28;8534;-77
2021/03/27 00:41:24;;;;;;;;;;;;;;;13.93;46.18;100657.09;4986683;28;6988;-77
2021/03/27 00:43:54;;;;;;;;;;;;;;;13.89;46.37;100657.06;4964324;28;6936;-77
2021/03/27 00:46:20;;;;;;;;;;;;;;;13.89;46.79;100662.28;4987301;28;7451;-77
2021/03/27 00:48:48;;;;;;;;;;;;;;;13.83;46.74;100683.13;4969580;28;7210;-77
2021/03/27 00:51:31;;;;;;;;;;;;;;;13.80;47.15;100683.94;4971929;28;8483;-77
2021/03/27 00:54:35;;;;;;;;;;;;;;;13.76;46.57;100704.78;4967979;28;11168;-77
2021/03/27 00:57:06;;;;;;;;;;;;;;;13.70;46.69;100698.66;4987148;28;11283;-76
2021/03/27 00:59:34;;;;;;;;;;;;;;;13.68;47.14;100713.44;4988686;28;8409;-75
2021/03/27 01:02:01;;;;;;;;;;;;;;;13.58;47.38;100719.41;4974485;28;6877;-77
2021/03/27 01:04:29;;;;;;;;;;;;;;;13.58;47.87;100714.19;4973789;28;7210;-76
2021/03/27 01:07:09;;;;;;;;;;;;;;;13.52;47.86;100713.25;4972498;28;11045;-76
2021/03/27 01:09:42;;;;;;;;;;;;;;;13.49;48.09;100714.09;4967226;28;11159;-77
2021/03/27 01:12:11;;;;;;;;;;;;;;;13.44;47.92;100721.00;4970225;28;8098;-77
2021/03/27 01:14:49;;;;;;;;;;;;;;;13.32;48.25;100724.34;4975090;28;6808;-76
2021/03/27 01:17:18;;;;;;;;;;;;;;;13.36;48.22;100730.47;4969377;28;6804;-77
2021/03/27 01:19:47;;;;;;;;;;;;;;;13.20;48.75;100736.34;4969406;28;7565;-76
2021/03/27 01:22:13;;;;;;;;;;;;;;;13.19;48.68;100738.06;4986810;28;6857;-76
2021/03/27 01:24:39;;;;;;;;;;;;;;;13.23;48.55;100736.41;4987964;28;7402;-78
2021/03/27 01:27:41;;;;;;;;;;;;;;;13.19;48.93;100730.25;4985799;28;7286;-77
2021/03/27 01:30:29;;;;;;;;;;;;;;;12.97;48.97;100723.88;4964851;28;11081;-77
2021/03/27 01:33:02;;;;;;;;;;;;;;;12.98;49.70;100728.22;4986592;28;11031;-77
2021/03/27 01:35:42;;;;;;;;;;;;;;;12.82;50.53;100741.94;4946220;28;13000;-77
2021/03/27 01:38:10;;;;;;;;;;;;;;;12.90;49.85;100747.22;5003136;28;11439;-76
2021/03/27 01:40:53;;;;;;;;;;;;;;;12.76;50.31;100740.09;4986845;28;7662;-77
2021/03/27 01:43:24;;;;;;;;;;;;;;;12.85;49.63;100748.91;4951419;28;8626;-77
2021/03/27 01:46:33;;;;;;;;;;;;;;;12.67;50.19;100763.41;4989403;28;7006;-77
2021/03/27 01:49:20;;;;;;;;;;;;;;;12.75;50.10;100763.53;4981276;28;11179;-77
2021/03/27 01:51:52;;;;;;;;;;;;;;;12.74;49.55;100749.63;4988269;28;7237;-77
2021/03/27 01:54:23;;;;;;;;;;;;;;;12.68;50.31;100761.69;5004935;28;7022;-77
2021/03/27 01:57:14;;;;;;;;;;;;;;;12.54;50.75;100773.63;4967983;28;7210;-76
2021/03/27 01:59:48;;;;;;;;;;;;;;;12.61;50.35;100775.44;4984965;28;11083;-76
2021/03/27 02:02:34;;;;;;;;;;;;;;;12.55;50.69;100784.06;4970421;28;6907;-76
2021/03/27 02:05:02;;;;;;;;;;;;;;;12.53;50.73;100798.78;5002462;28;11081;-77
2021/03/27 02:07:33;;;;;;;;;;;;;;;12.43;50.56;100808.19;4986980;28;7186;-76
2021/03/27 02:10:08;;;;;;;;;;;;;;;12.38;51.11;100803.75;4983672;28;11080;-77
2021/03/27 02:12:51;;;;;;;;;;;;;;;12.36;51.16;100790.69;4986410;28;7069;-77
2021/03/27 02:15:26;;;;;;;;;;;;;;;12.32;50.45;100791.50;5004335;28;7379;-76
2021/03/27 02:17:55;;;;;;;;;;;;;;;12.32;50.64;100804.53;4974871;28;7431;-77
2021/03/27 02:20:58;;;;;;;;;;;;;;;12.23;51.38;100803.50;5008788;28;7005;-77
2021/03/27 02:23:57;;;;;;;;;;;;;;;12.26;51.04;100799.22;5000248;28;12702;-77
2021/03/27 02:26:54;;;;;;;;;;;;;;;12.20;51.25;100817.31;4990270;28;11095;-76
2021/03/27 02:29:29;;;;;;;;;;;;;;;12.15;51.36;100816.38;4987470;28;11098;-77
2021/03/27 02:32:22;;;;;;;;;;;;;;;12.13;50.97;100829.34;5006786;28;12754;-77
2021/03/27 02:34:58;;;;;;;;;;;;;;;12.11;51.20;100830.19;4990259;28;11165;-76
2021/03/27 02:37:36;;;;;;;;;;;;;;;12.08;51.01;100831.00;4988428;28;7071;-77
2021/03/27 02:40:19;;;;;;;;;;;;;;;12.02;50.94;100835.25;4973291;28;11181;-77
2021/03/27 02:42:56;;;;;;;;;;;;;;;12.02;51.69;100846.53;4974798;28;7786;-77
2021/03/27 02:45:27;;;;;;;;;;;;;;;11.86;51.70;100841.88;5006172;28;7809;-76
2021/03/27 02:47:58;;;;;;;;;;;;;;;11.86;51.89;100841.88;4959671;28;6992;-76
2021/03/27 02:50:58;;;;;;;;;;;;;;;11.86;51.32;100850.56;4993706;28;7658;-77
2021/03/27 02:53:34;;;;;;;;;;;;;;;11.87;51.48;100861.84;4997094;28;11355;-76
2021/03/27 02:56:05;;;;;;;;;;;;;;;11.83;51.56;100871.31;4968981;28;11521;-77
2021/03/27 02:58:34;;;;;;;;;;;;;;;11.82;51.44;100866.97;4991494;28;7497;-76
2021/03/27 03:01:20;;;;;;;;;;;;;;;11.81;51.61;100861.69;4972032;28;7278;-77
2021/03/27 03:03:54;;;;;;;;;;;;;;;11.75;51.43;100867.63;4977633;28;7960;-77
2021/03/27 03:06:30;;;;;;;;;;;;;;;11.74;51.93;100865.88;4993028;28;6945;-77
2021/03/27 03:08:59;;;;;;;;;;;;;;;11.69;52.36;100879.66;4988644;28;11031;-76
2021/03/27 03:11:33;;;;;;;;;;;;;;;11.69;52.08;100875.31;4991453;28;11042;-77
2021/03/27 03:14:20;;;;;;;;;;;;;;;11.58;51.68;100880.28;4972728;28;11047;-76
2021/03/27 03:17:15;;;;;;;;;;;;;;;11.63;51.63;100889.94;4992137;28;12640;-77
2021/03/27 03:20:39;;;;;;;;;;;;;;;11.59;51.66;100891.56;4999790;28;10944;-77
2021/03/27 03:23:12;;;;;;;;;;;;;;;11.54;52.45;100895.78;4934726;28;11525;-77
2021/03/27 03:26:09;;;;;;;;;;;;;;;11.51;52.13;100893.13;4918899;28;6814;-76
2021/03/27 03:28:41;;;;;;;;;;;;;;;11.49;52.13;100905.22;4938595;28;11121;-77
2021/03/27 03:31:29;;;;;;;;;;;;;;;11.47;52.00;100897.41;4988423;28;7201;-76
2021/03/27 03:34:21;;;;;;;;;;;;;;;11.44;52.35;100902.53;4988537;28;11241;-76
2021/03/27 03:36:49;;;;;;;;;;;;;;;11.40;52.32;100902.41;4974209;28;11456;-77
2021/03/27 03:39:29;;;;;;;;;;;;;;;11.38;52.33;100917.09;5004046;28;7172;-76
2021/03/27 03:41:58;;;;;;;;;;;;;;;11.32;52.45;100923.03;4987086;28;11320;-76
2021/03/27 03:44:42;;;;;;;;;;;;;;;11.33;52.85;100923.94;5007025;28;7241;-76
2021/03/27 03:47:30;;;;;;;;;;;;;;;11.31;52.17;100928.22;4992902;28;10993;-77
2021/03/27 03:50:14;;;;;;;;;;;;;;;11.27;52.26;100925.53;4987128;28;11040;-77
2021/03/27 03:52:51;;;;;;;;;;;;;;;11.26;51.74;100930.72;4984691;28;11117;-76
2021/03/27 03:55:36;;;;;;;;;;;;;;;11.22;52.64;100937.56;4991049;28;7717;-77
2021/03/27 03:58:42;;;;;;;;;;;;;;;11.20;52.25;100925.34;4972295;28;11151;-76
2021/03/27 04:01:31;;;;;;;;;;;;;;;11.17;52.32;100935.69;4986733;28;11538;-77
2021/03/27 04:03:57;;;;;;;;;;;;;;;11.15;52.18;100925.25;4941354;28;11488;-76
2021/03/27 04:06:26;;;;;;;;;;;;;;;11.15;52.35;100933.03;4988163;28;7262;-76
2021/03/27 04:08:56;;;;;;;;;;;;;;;11.10;52.38;100931.19;4972391;28;8783;-76
2021/03/27 04:11:27;;;;;;;;;;;;;;;11.08;52.55;100935.47;4969937;28;7010;-77
2021/03/27 04:13:53;;;;;;;;;;;;;;;11.08;52.87;100944.16;4989560;28;7079;-76
2021/03/27 04:16:21;;;;;;;;;;;;;;;11.06;52.21;100944.97;4970824;28;7041;-76
2021/03/27 04:18:59;;;;;;;;;;;;;;;11.04;53.03;100952.72;4967045;28;7412;-77
2021/03/27 04:21:31;;;;;;;;;;;;;;;11.03;52.64;100965.69;4965133;28;7489;-77
2021/03/27 04:24:00;;;;;;;;;;;;;;;11.00;52.24;100970.78;4986234;28;12854;-76
2021/03/27 04:26:54;;;;;;;;;;;;;;;10.95;52.64;100974.16;4988077;28;8536;-77
2021/03/27 04:29:23;;;;;;;;;;;;;;;10.95;52.95;100973.25;4983981;28;11286;-76
2021/03/27 04:32:22;;;;;;;;;;;;;;;10.94;52.84;100981.91;4988562;28;7181;-76
2021/03/27 04:35:10;;;;;;;;;;;;;;;10.86;52.92;100983.44;4987228;28;11397;-76
2021/03/27 04:37:44;;;;;;;;;;;;;;;10.87;52.30;100986.06;4987872;28;12463;-77
2021/03/27 04:40:15;;;;;;;;;;;;;;;10.84;52.60;100990.31;4971610;28;6864;-76
2021/03/27 04:43:04;;;;;;;;;;;;;;;10.82;52.83;100999.78;5003252;28;6811;-76
2021/03/27 04:45:36;;;;;;;;;;;;;;;10.80;52.53;100996.25;5004534;28;11033;-76
2021/03/27 04:48:11;;;;;;;;;;;;;;;10.78;52.39;100996.22;4998978;28;12837;-76
2021/03/27 04:51:09;;;;;;;;;;;;;;;10.75;52.43;100996.13;4989816;28;7451;-77
2021/03/27 04:53:53;;;;;;;;;;;;;;;10.73;52.52;100994.34;4980894;28;12909;-77
2021/03/27 04:56:36;;;;;;;;;;;;;;;10.71;52.53;101003.81;4987443;28;7914;-77
2021/03/27 04:59:31;;;;;;;;;;;;;;;10.66;53.08;101007.16;4989363;28;11068;-77
2021/03/27 05:02:17;;;;;;;;;;;;;;;10.64;52.65;101002.78;4959461;28;13324;-77
2021/03/27 05:04:59;;;;;;;;;;;;;;;10.56;52.68;101010.34;4970658;28;11126;-76
2021/03/27 05:07:34;;;;;;;;;;;;;;;10.56;52.82;101020.72;4971419;28;7092;-76
2021/03/27 05:10:02;;;;;;;;;;;;;;;10.56;52.82;101023.31;4971209;28;11147;-77
2021/03/27 05:12:57;;;;;;;;;;;;;;;10.53;52.31;101028.44;4990197;28;11426;-75
2021/03/27 05:15:43;;;;;;;;;;;;;;;10.48;53.11;101030.03;4999838;28;11247;-75
2021/03/27 05:18:20;;;;;;;;;;;;;;;10.48;53.04;101040.41;4995377;28;11542;-75
2021/03/27 05:20:46;;;;;;;;;;;;;;;10.43;53.06;101036.81;4994993;28;6988;-76
2021/03/27 05:23:19;;;;;;;;;;;;;;;10.44;52.52;101048.97;4968061;28;7166;-76
2021/03/27 05:25:44;;;;;;;;;;;;;;;10.42;52.62;101048.06;4970541;28;7472;-75
2021/03/27 05:28:35;;;;;;;;;;;;;;;10.41;52.11;101048.88;4987149;28;6955;-75
2021/03/27 05:31:22;;;;;;;;;;;;;;;10.39;52.94;101054.84;4988509;28;11177;-75
2021/03/27 05:34:11;;;;;;;;;;;;;;;10.38;52.44;101066.94;4979280;28;11201;-75
2021/03/27 05:36:51;;;;;;;;;;;;;;;10.36;52.53;101058.22;4997497;28;11026;-75
2021/03/27 05:39:29;;;;;;;;;;;;;;;10.35;52.60;101061.66;4987712;28;7798;-75
2021/03/27 05:42:16;;;;;;;;;;;;;;;10.31;52.60;101059.81;4989955;28;7182;-75
2021/03/27 05:45:12;;;;;;;;;;;;;;;10.29;52.70;101066.69;5005853;28;11389;-76
2021/03/27 05:48:13;;;;;;;;;;;;;;;10.31;53.10;101070.22;5000342;28;11081;-76
2021/03/27 05:51:10;;;;;;;;;;;;;;;10.31;52.79;101062.41;4953761;28;11024;-76
2021/03/27 05:54:09;;;;;;;;;;;;;;;10.30;52.46;101068.44;5005760;28;11050;-75
2021/03/27 05:57:09;;;;;;;;;;;;;;;10.32;52.71;101074.56;5005385;28;11020;-76
2021/03/27 06:00:16;;;;;;;;;;;;;;;10.27;53.19;101082.22;4990455;28;13017;-75
2021/03/27 06:03:06;;;;;;;;;;;;;;;10.35;52.47;101082.44;4990978;28;10976;-75
2021/03/27 06:06:00;;;;;;;;;;;;;;;10.34;52.58;101083.28;4986771;28;13058;-75
2021/03/27 06:08:42;;;;;;;;;;;;;;;10.39;52.27;101080.81;5004519;28;12821;-76
2021/03/27 06:11:31;;;;;;;;;;;;;;;10.35;52.45;101080.72;4974695;28;11425;-76
2021/03/27 06:14:22;;;;;;;;;;;;;;;10.36;52.81;101081.59;4998376;28;6813;-76
2021/03/27 06:16:48;;;;;;;;;;;;;;;10.42;52.57;101083.53;4988858;28;11416;-76
2021/03/27 06:19:29;;;;;;;;;;;;;;;10.40;52.20;101090.34;5002342;28;7415;-76
2021/03/27 06:22:13;;;;;;;;;;;;;;;10.40;52.52;101090.34;4991574;28;7319;-75
2021/03/27 06:24:51;;;;;;;;;;;;;;;10.41;52.82;101097.31;4989482;28;11235;-75
2021/03/27 06:27:47;;;;;;;;;;;;;;;10.40;52.53;101099.03;4990531;28;6832;-76
2021/03/27 06:30:44;;;;;;;;;;;;;;;10.46;52.77;101107.00;4988623;28;11136;-76
2021/03/27 06:33:32;;;;;;;;;;;;;;;10.58;52.28;101107.34;4978709;28;10955;-76
2021/03/27 06:35:57;;;;;;;;;;;;;;;10.62;51.53;101113.53;4990556;28;7248;-75
2021/03/27 06:38:44;;;;;;;;;;;;;;;10.68;51.74;101113.69;4989168;28;6811;-75
2021/03/27 06:41:15;;;;;;;;;;;;;;;10.76;51.29;101113.91;4993256;28;11228;-75
2021/03/27 06:43:49;;;;;;;;;;;;;;;10.78;51.56;101120.91;5005151;28;8522;-76
2021/03/27 06:46:30;;;;;;;;;;;;;;;10.65;52.28;101111.91;4989415;28;7228;-76
2021/03/27 06:49:10;;;;;;;;;;;;;;;10.58;51.74;101119.44;5006819;28;8545;-75
2021/03/27 06:51:57;;;;;;;;;;;;;;;10.51;51.92;101125.31;5003872;28;11146;-75
2021/03/27 06:54:43;;;;;;;;;;;;;;;10.49;51.71;101133.06;4988939;28;7061;-78
2021/03/27 06:57:30;;;;;;;;;;;;;;;10.43;52.37;101145.00;4972694;28;11588;-76
2021/03/27 07:00:32;;;;;;;;;;;;;;;10.44;52.18;101165.81;4983982;28;7330;-75
2021/03/27 07:03:16;;;;;;;;;;;;;;;10.43;52.65;101164.03;4992082;28;11555;-78
2021/03/27 07:05:48;;;;;;;;;;;;;;;10.43;52.86;101187.41;4993378;28;11231;-77
2021/03/27 07:08:50;;;;;;;;;;;;;;;10.44;52.60;101196.09;4988665;28;7111;-78
2021/03/27 07:11:28;;;;;;;;;;;;;;;10.35;52.87;101233.00;4995859;28;11183;-78
2021/03/27 07:14:06;;;;;;;;;;;;;;;10.40;52.48;101243.53;4993066;28;7290;-77
2021/03/27 07:16:52;;;;;;;;;;;;;;;10.29;53.54;101245.81;4991066;28;11262;-79
2021/03/27 07:20:13;;;;;;;;;;;;;;;10.26;53.23;101282.06;4999712;28;11042;-79
2021/03/27 07:22:53;;;;;;;;;;;;;;;10.24;53.16;101287.19;4938103;28;11192;-79
2021/03/27 07:25:33;;;;;;;;;;;;;;;10.12;53.48;101296.25;4995574;28;6807;-75
2021/03/27 07:28:18;;;;;;;;;;;;;;;10.16;53.23;101290.31;4980115;28;11120;-74
2021/03/27 07:31:08;;;;;;;;;;;;;;;10.15;53.54;101275.56;4991872;28;10963;-73
2021/03/27 07:33:33;;;;;;;;;;;;;;;10.19;53.26;101236.78;4978679;28;12346;-75
2021/03/27 07:36:32;;;;;;;;;;;;;;;10.27;53.04;101244.88;4982577;28;6921;-78
2021/03/27 07:39:23;;;;;;;;;;;;;;;10.37;52.97;101254.72;4988405;28;11835;-78
2021/03/27 07:41:54;;;;;;;;;;;;;;;10.44;52.90;101254.09;4974229;28;11362;-78
2021/03/27 07:44:49;;;;;;;;;;;;;;;10.60;52.36;101263.22;4986469;28;7202;-78
2021/03/27 07:47:31;;;;;;;;;;;;;;;10.72;51.96;101263.59;4987829;28;12809;-78
2021/03/27 07:50:02;;;;;;;;;;;;;;;10.77;51.66;101271.53;5005051;28;7271;-77
2021/03/27 07:52:42;;;;;;;;;;;;;;;10.90;51.73;101276.28;4998976;28;7111;-77
2021/03/27 07:55:32;;;;;;;;;;;;;;;11.02;51.05;101274.06;4993953;28;11403;-77
2021/03/27 07:58:35;;;;;;;;;;;;;;;11.12;51.02;101277.78;4986788;28;6811;-78
2021/03/27 08:01:19;;;;;;;;;;;;;;;11.34;50.46;101287.09;4980320;28;11950;-78
2021/03/27 08:04:06;;;;;;;;;;;;;;;11.40;50.07;101292.47;4982273;28;11309;-77
2021/03/27 08:06:45;;;;;;;;;;;;;;;11.37;50.45;101305.38;4976824;28;11750;-77
2021/03/27 08:09:17;;;;;;;;;;;;;;;11.47;50.38;101307.44;4980714;28;12822;-77
2021/03/27 08:12:16;;;;;;;;;;;;;;;11.65;49.79;101313.16;4983867;28;7350;-77
2021/03/27 08:14:42;;;;;;;;;;;;;;;11.70;49.72;101334.09;4985954;28;11227;-77
2021/03/27 08:17:36;;;;;;;;;;;;;;;11.65;50.59;101327.88;4984048;28;7305;-73
2021/03/27 08:20:12;;;;;;;;;;;;;;;11.65;50.16;101325.28;4979084;28;11310;-73
2021/03/27 08:23:07;;;;;;;;;;;;;;;11.77;50.29;101333.41;4986680;28;11244;-75
2021/03/27 08:25:56;;;;;;;;;;;;;;;11.87;49.76;101344.16;4973469;28;11217;-75
2021/03/27 08:28:39;;;;;;;;;;;;;;;11.87;49.81;101341.56;4986770;28;11151;-74
2021/03/27 08:31:16;;;;;;;;;;;;;;;12.06;49.71;101345.53;4988535;28;12246;-75
2021/03/27 08:34:10;;;;;;;;;;;;;;;12.23;49.43;101339.91;4989881;28;7096;-75
2021/03/27 08:36:59;;;;;;;;;;;;;;;12.26;49.20;101338.25;4982959;28;10983;-75
2021/03/27 08:39:49;;;;;;;;;;;;;;;12.47;48.69;101330.97;4989336;28;6986;-75
2021/03/27 08:42:26;;;;;;;;;;;;;;;12.71;47.87;101332.41;4997774;28;13186;-76
2021/03/27 08:45:29;;;;;;;;;;;;;;;12.85;48.07;101338.81;4987135;28;7222;-77
2021/03/27 08:48:20;;;;;;;;;;;;;;;12.79;47.97;101334.31;4986176;28;11178;-73
2021/03/27 08:51:00;;;;;;;;;;;;;;;12.72;48.72;101336.75;4988900;28;11471;-77
2021/03/27 08:53:25;;;;;;;;;;;;;;;12.94;48.20;101344.25;4969293;28;10293;-76
2021/03/27 08:56:28;;;;;;;;;;;;;;;13.18;47.29;101354.38;4985110;28;8180;-75
2021/03/27 08:59:15;;;;;;;;;;;;;;;13.35;47.13;101353.00;4998439;28;12693;-76
2021/03/27 09:02:23;;;;;;;;;;;;;;;13.52;47.30;101353.38;4985744;28;11489;-77
2021/03/27 09:04:51;;;;;;;;;;;;;;;13.72;46.28;101356.38;4969334;28;11073;-76
2021/03/27 09:07:40;;;;;;;;;;;;;;;13.85;45.95;101357.53;4987030;28;6784;-77
2021/03/27 09:10:21;;;;;;;;;;;;;;;14.09;46.22;101365.81;4988880;28;11137;-77
2021/03/27 09:12:52;;;;;;;;;;;;;;;14.37;45.31;101382.88;4991797;28;6831;-77
2021/03/27 09:15:36;;;;;;;;;;;;;;;14.59;44.43;101381.53;4972934;28;8431;-73
2021/03/27 09:18:40;;;;;;;;;;;;;;;14.71;44.25;101378.25;4987160;28;11427;-76
2021/03/27 09:21:28;;;;;;;;;;;;;;;14.75;44.74;101370.47;4978364;28;12854;-75
2021/03/27 09:24:33;;;;;;;;;;;;;;;14.69;44.36;101375.63;4969763;28;7379;-74
2021/03/27 09:27:16;;;;;;;;;;;;;;;14.82;44.38;101377.59;4964197;28;13131;-76
2021/03/27 09:30:03;;;;;;;;;;;;;;;15.05;44.42;101374.44;4992302;28;11138;-76
2021/03/27 09:32:57;;;;;;;;;;;;;;;15.34;43.53;101386.19;4992987;28;7359;-75
2021/03/27 09:35:43;;;;;;;;;;;;;;;15.34;42.87;101383.56;5003347;28;12872;-75
2021/03/27 09:38:14;;;;;;;;;;;;;;;15.46;43.32;101395.97;4981002;28;12332;-75
2021/03/27 09:40:52;;;;;;;;;;;;;;;15.54;42.80;101389.06;4976010;28;6882;-76
2021/03/27 09:43:40;;;;;;;;;;;;;;;15.47;43.17;101393.38;4991955;28;6939;-75
2021/03/27 09:46:17;;;;;;;;;;;;;;;15.32;43.87;101392.28;4989204;28;11355;-76
2021/03/27 09:49:03;;;;;;;;;;;;;;;15.53;42.77;101416.13;4988052;28;7125;-75
2021/03/27 09:51:35;;;;;;;;;;;;;;;15.80;42.24;101400.78;4986397;28;6945;-75
2021/03/27 09:54:02;;;;;;;;;;;;;;;15.95;42.44;101397.47;4989680;28;7239;-75
2021/03/27 09:56:32;;;;;;;;;;;;;;;15.97;42.07;101402.72;4990477;28;8241;-74
2021/03/27 09:59:33;;;;;;;;;;;;;;;16.29;41.47;101382.13;4973057;28;6986;-74
2021/03/27 10:02:17;;;;;;;;;;;;;;;16.18;42.13;101392.47;4941556;28;13143;-75
2021/03/27 10:05:20;;;;;;;;;;;;;;;16.26;41.56;101387.34;4985520;28;11106;-74
2021/03/27 10:08:04;;;;;;;;;;;;;;;16.57;40.83;101381.50;4974073;28;11131;-76
2021/03/27 10:10:37;;;;;;;;;;;;;;;16.45;41.41;101396.28;4988357;28;6815;-75
2021/03/27 10:13:17;;;;;;;;;;;;;;;16.59;41.07;101390.25;4987778;28;11252;-75
2021/03/27 10:15:53;;;;;;;;;;;;;;;16.62;40.82;101387.69;5001664;28;11082;-75
2021/03/27 10:18:59;;;;;;;;;;;;;;;16.90;40.32;101391.44;4970746;28;6990;-75
2021/03/27 10:21:50;;;;;;;;;;;;;;;17.34;38.88;101380.34;4984272;28;11284;-73
2021/03/27 10:24:48;;;;;;;;;;;;;;;17.32;39.08;101396.09;4981823;28;11335;-75
2021/03/27 10:27:23;;;;;;;;;;;;;;;16.98;39.73;101384.50;4969358;28;12860;-73
2021/03/27 10:29:56;;;;;;;;;;;;;;;16.90;39.77;101394.06;4990994;28;7059;-74
2021/03/27 10:32:24;;;;;;;;;;;;;;;16.93;39.56;101409.81;4995399;28;7185;-74
2021/03/27 10:35:28;;;;;;;;;;;;;;;17.08;38.87;101416.94;4990618;28;7252;-75
2021/03/27 10:38:15;;;;;;;;;;;;;;;17.00;39.35;101419.50;4983032;28;11396;-74
2021/03/27 10:41:02;;;;;;;;;;;;;;;17.21;38.96;101431.88;5002129;28;12512;-75
2021/03/27 10:43:44;;;;;;;;;;;;;;;17.63;37.96;101433.03;4992352;28;7237;-76
2021/03/27 10:46:09;;;;;;;;;;;;;;;17.70;38.26;101415.59;4990135;28;11039;-77
2021/03/27 10:48:41;;;;;;;;;;;;;;;17.78;37.63;101420.00;4989901;28;7302;-77
2021/03/27 10:51:26;;;;;;;;;;;;;;;17.46;37.88;101435.56;4988656;28;12092;-77
2021/03/27 10:53:58;;;;;;;;;;;;;;;17.63;37.87;101454.94;4971881;28;7117;-77
2021/03/27 10:56:46;;;;;;;;;;;;;;;17.78;37.45;101434.88;4989154;28;7189;-78
2021/03/27 10:59:14;;;;;;;;;;;;;;;18.15;36.72;101449.03;4972279;28;11076;-78
2021/03/27 11:02:03;;;;;;;;;;;;;;;18.04;36.83;101463.91;4983861;28;6834;-78
2021/03/27 11:04:53;;;;;;;;;;;;;;;18.28;35.79;101463.13;4989749;28;7422;-75
2021/03/27 11:07:42;;;;;;;;;;;;;;;18.34;36.10;101453.47;4983070;28;11217;-76
2021/03/27 11:10:29;;;;;;;;;;;;;;;18.76;34.90;101476.41;4988539;28;10977;-76
2021/03/27 11:13:43;;;;;;;;;;;;;;;18.83;35.21;101508.88;4988356;28;7140;-76
2021/03/27 11:16:15;;;;;;;;;;;;;;;19.04;34.61;101485.19;4921879;28;11029;-76
2021/03/27 11:19:20;;;;;;;;;;;;;;;19.14;34.00;101500.09;4966379;28;7361;-77
2021/03/27 11:21:54;;;;;;;;;;;;;;;19.34;33.56;101499.22;5004559;28;11288;-78
2021/03/27 11:24:37;;;;;;;;;;;;;;;19.35;33.39;101501.84;4989211;28;7516;-81
2021/03/27 11:27:34;;;;;;;;;;;;;;;19.55;33.00;101507.13;5003344;28;11194;-80
2021/03/27 11:30:20;;;;;;;;;;;;;;;19.80;32.53;101501.81;4989289;28;10979;-78
2021/03/27 11:32:55;;;;;;;;;;;;;;;19.86;32.70;101514.97;4988863;28;11011;-77
2021/03/27 11:35:22;;;;;;;;;;;;;;;20.04;32.30;101507.91;4989144;28;7357;-77
2021/03/27 11:37:49;;;;;;;;;;;;;;;20.25;31.95;101499.03;5005219;28;6803;-78
2021/03/27 11:40:32;;;;;;;;;;;;;;;20.46;31.76;101499.81;4983904;28;7048;-77
2021/03/27 11:43:13;;;;;;;;;;;;;;;20.77;31.71;101492.56;5004697;28;7217;-77
2021/03/27 11:45:56;;;;;;;;;;;;;;;20.94;31.46;101507.41;4979863;28;13195;-75
2021/03/27 11:48:35;;;;;;;;;;;;;;;21.02;30.88;101512.63;4972509;28;6824;-79
2021/03/27 11:51:36;;;;;;;;;;;;;;;21.27;30.96;101517.78;4982188;28;7503;-77
2021/03/27 11:54:11;;;;;;;;;;;;;;;21.05;32.00;101525.84;4980674;28;11313;-76
2021/03/27 11:56:53;;;;;;;;;;;;;;;21.58;32.37;101521.00;4970805;28;11286;-74
2021/03/27 12:00:47;;;;;;;;;;;;;;;21.74;33.72;101504.97;4973062;28;11142;-75
2021/03/27 12:02:31;;;;;;;;;;;;;;;22.08;33.67;101520.50;4974237;28;11195;-74
2021/03/27 12:05:47;;;;;;;;;;;;;;;22.48;33.46;101512.03;4987793;28;7004;-75
2021/03/27 12:08:21;;;;;;;;;;;;;;;22.53;35.06;101518.13;4938072;28;13277;-74
2021/03/27 12:11:23;;;;;;;;;;;;;;;22.48;36.44;101518.19;4914412;28;7060;-75
2021/03/27 12:14:02;;;;;;;;;;;;;;;22.59;36.95;101534.78;4946916;28;10969;-74
2021/03/27 12:16:44;;;;;;;;;;;;;;;22.88;38.87;101510.59;4989924;28;6827;-76
2021/03/27 12:19:27;;;;;;;;;;;;;;;22.89;37.67;101524.72;4955941;28;10994;-75
2021/03/27 12:22:12;;;;;;;;;;;;;;;23.29;37.19;101527.59;4987705;28;6927;-76
2021/03/27 12:24:46;;;;;;;;;;;;;;;23.25;35.32;101536.50;4985957;28;11368;-75
2021/03/27 12:27:30;;;;;;;;;;;;;;;23.41;35.16;101543.25;4984103;28;11145;-77
2021/03/27 12:30:23;;;;;;;;;;;;;;;23.80;34.22;101540.84;5002482;28;7132;-74
2021/03/27 12:32:54;;;;;;;;;;;;;;;24.08;33.19;101552.69;4983126;28;11543;-74
2021/03/27 12:35:20;;;;;;;;;;;;;;;24.22;32.45;101560.34;4992222;28;6863;-75
2021/03/27 12:38:04;;;;;;;;;;;;;;;24.72;31.57;101572.59;4986605;28;6799;-75
2021/03/27 12:40:52;;;;;;;;;;;;;;;25.30;30.81;101573.91;5000709;28;7198;-78
2021/03/27 12:43:19;;;;;;;;;;;;;;;25.60;29.28;101564.28;4999717;28;11103;-80
2021/03/27 12:46:07;;;;;;;;;;;;;;;25.63;29.33;101558.91;4983245;28;6798;-79
2021/03/27 12:48:50;;;;;;;;;;;;;;;25.49;29.12;101550.41;4985032;28;6853;-79
2021/03/27 12:51:21;;;;;;;;;;;;;;;25.15;28.96;101576.94;4984417;28;13236;-79
2021/03/27 12:54:24;;;;;;;;;;;;;;;24.73;28.91;101592.94;4985163;28;7488;-79
2021/03/27 12:57:32;;;;;;;;;;;;;;;24.66;29.00;101585.16;4988255;28;10995;-79
2021/03/27 13:00:16;;;;;;;;;;;;;;;25.08;28.30;101594.84;5002515;28;11604;-80
2021/03/27 13:03:00;;;;;;;;;;;;;;;25.60;27.61;101612.16;4983127;28;11350;-81
2021/03/27 13:05:43;;;;;;;;;;;;;;;26.06;26.57;101605.69;4991467;28;7953;-78
2021/03/27 13:08:20;;;;;;;;;;;;;;;26.77;25.69;101608.06;4984420;28;11543;-78
2021/03/27 13:10:55;;;;;;;;;;;;;;;26.42;26.72;101611.75;4997708;28;11156;-77
2021/03/27 13:13:58;;;;;;;;;;;;;;;25.82;27.51;101635.56;4968284;28;8067;-79
2021/03/27 13:16:45;;;;;;;;;;;;;;;25.91;25.90;101632.69;4985310;28;13655;-76
2021/03/27 13:19:40;;;;;;;;;;;;;;;26.19;25.75;101628.38;4940863;28;11739;-78
2021/03/27 13:22:19;;;;;;;;;;;;;;;27.62;23.55;101622.25;4995243;28;11604;-78
2021/03/27 13:25:19;;;;;;;;;;;;;;;27.25;24.52;101631.50;4982966;28;11265;-77
2021/03/27 13:27:52;;;;;;;;;;;;;;;27.06;24.65;101630.34;4983381;28;11481;-76
2021/03/27 13:30:20;;;;;;;;;;;;;;;33.26;17.66;101631.50;4985424;28;6993;-77
2021/03/27 13:33:01;;;;;;;;;;;;;;;35.36;15.67;101637.31;4980992;28;7692;-77
2021/03/27 13:35:37;;;;;;;;;;;;;;;36.61;14.53;101633.16;4954867;28;8880;-78
2021/03/27 13:38:10;;;;;;;;;;;;;;;37.36;13.60;101625.81;4967507;28;7061;-79
2021/03/27 13:40:36;;;;;;;;;;;;;;;37.88;13.46;101639.97;4983262;28;11294;-76
2021/03/27 13:43:21;;;;;;;;;;;;;;;38.74;12.66;101626.75;4960640;28;6986;-78
2021/03/27 13:45:56;;;;;;;;;;;;;;;39.24;12.12;101629.84;4986918;28;11506;-77
2021/03/27 13:48:30;;;;;;;;;;;;;;;40.32;11.85;101630.53;4995385;28;6852;-78
2021/03/27 13:51:11;;;;;;;;;;;;;;;40.78;10.78;101623.69;4990941;28;7822;-77
2021/03/27 13:53:42;;;;;;;;;;;;;;;40.98;10.50;101637.25;4988823;28;11296;-76
2021/03/27 13:56:16;;;;;;;;;;;;;;;40.85;10.59;101608.53;4990013;28;11090;-77
2021/03/27 13:59:03;;;;;;;;;;;;;;;39.37;11.67;101625.09;4982814;28;14048;-78